createdAt,value
2018-04-30T00:00:25.830Z,55.70
2018-04-30T00:01:26.895Z,56.70
2018-04-30T00:02:27.979Z,55.80
2018-04-30T00:03:29.777Z,56.30
2018-04-30T00:04:30.842Z,56.30
2018-04-30T00:05:31.907Z,56.40
2018-04-30T00:06:32.975Z,56.30
2018-04-30T00:07:34.031Z,56.30
2018-04-30T00:08:35.094Z,56.40
2018-04-30T00:09:36.150Z,56.50
2018-04-30T00:10:37.198Z,56.40
2018-04-30T00:11:38.374Z,56.60
2018-04-30T00:12:39.851Z,56.70
2018-04-30T00:13:40.922Z,56.60
2018-04-30T00:14:42.848Z,56.90
2018-04-30T00:15:44.195Z,56.70
2018-04-30T00:16:45.291Z,56.60
2018-04-30T00:17:47.088Z,57.00
2018-04-30T00:18:48.166Z,57.00
2018-04-30T00:19:49.976Z,57.00
2018-04-30T00:20:51.047Z,57.00
2018-04-30T00:21:52.848Z,56.70
2018-04-30T00:22:53.916Z,56.70
2018-04-30T00:23:54.968Z,56.50
2018-04-30T00:24:56.031Z,57.80
2018-04-30T00:25:57.075Z,57.10
2018-04-30T00:26:58.146Z,56.50
2018-04-30T00:27:59.960Z,56.90
2018-04-30T00:29:01.047Z,56.90
2018-04-30T00:30:02.125Z,56.90
2018-04-30T00:31:03.211Z,56.80
2018-04-30T00:32:04.275Z,56.90
2018-04-30T00:33:05.371Z,56.70
2018-04-30T00:34:06.460Z,56.70
2018-04-30T00:35:07.531Z,56.50
2018-04-30T00:36:09.332Z,56.10
2018-04-30T00:37:10.419Z,56.10
2018-04-30T00:38:12.221Z,55.60
2018-04-30T00:39:13.287Z,55.60
2018-04-30T00:40:15.087Z,55.60
2018-04-30T00:41:16.146Z,55.50
2018-04-30T00:42:17.206Z,55.40
2018-04-30T00:43:18.264Z,55.20
2018-04-30T00:44:19.328Z,55.00
2018-04-30T00:45:20.395Z,55.10
2018-04-30T00:46:22.218Z,55.20
2018-04-30T00:47:23.287Z,55.20
2018-04-30T00:48:24.358Z,55.20
2018-04-30T00:49:25.444Z,55.20
2018-04-30T00:50:27.295Z,55.10
2018-04-30T00:51:28.390Z,55.20
2018-04-30T00:52:29.467Z,55.00
2018-04-30T00:53:30.559Z,55.20
2018-04-30T00:54:43.947Z,55.90
2018-04-30T00:55:45.003Z,55.10
2018-04-30T00:56:46.092Z,55.20
2018-04-30T00:57:47.205Z,55.20
2018-04-30T00:58:49.003Z,55.40
2018-04-30T00:59:50.084Z,55.40
2018-04-30T01:00:51.921Z,55.50
2018-04-30T01:01:52.975Z,55.40
2018-04-30T01:02:54.790Z,55.60
2018-04-30T01:03:55.862Z,55.60
2018-04-30T01:04:57.663Z,55.40
2018-04-30T01:05:58.709Z,55.40
2018-04-30T01:06:59.775Z,55.60
2018-04-30T01:08:01.578Z,55.50
2018-04-30T01:09:02.651Z,55.50
2018-04-30T01:10:03.732Z,55.60
2018-04-30T01:11:04.823Z,55.70
2018-04-30T01:12:05.906Z,55.80
2018-04-30T01:13:06.967Z,55.60
2018-04-30T01:14:08.770Z,55.40
2018-04-30T01:15:09.835Z,55.40
2018-04-30T01:16:11.658Z,55.40
2018-04-30T01:17:12.727Z,55.20
2018-04-30T01:18:13.784Z,55.40
2018-04-30T01:19:14.863Z,55.20
2018-04-30T01:20:15.918Z,55.30
2018-04-30T01:21:16.977Z,54.80
2018-04-30T01:22:18.774Z,55.00
2018-04-30T01:23:19.839Z,55.00
2018-04-30T01:24:21.659Z,54.90
2018-04-30T01:25:22.706Z,54.80
2018-04-30T01:26:23.770Z,54.60
2018-04-30T01:27:24.840Z,54.70
2018-04-30T01:28:25.903Z,54.60
2018-04-30T01:29:26.950Z,54.60
2018-04-30T01:30:28.747Z,54.80
2018-04-30T01:31:29.804Z,54.70
2018-04-30T01:32:30.882Z,54.80
2018-04-30T01:33:31.943Z,54.70
2018-04-30T01:34:33.539Z,54.60
2018-04-30T01:35:35.403Z,54.50
2018-04-30T01:36:36.496Z,54.60
2018-04-30T01:37:37.576Z,54.50
2018-04-30T01:38:38.636Z,54.40
2018-04-30T01:39:39.708Z,54.50
2018-04-30T01:40:40.763Z,54.40
2018-04-30T01:41:42.547Z,54.70
2018-04-30T01:42:43.598Z,54.70
2018-04-30T01:43:44.652Z,54.60
2018-04-30T01:44:45.724Z,54.30
2018-04-30T01:45:46.795Z,53.10
2018-04-30T01:46:47.842Z,53.20
2018-04-30T01:47:48.915Z,52.70
2018-04-30T01:48:49.999Z,53.00
2018-04-30T01:49:51.062Z,53.00
2018-04-30T01:50:52.132Z,53.00
2018-04-30T01:51:53.194Z,52.20
2018-04-30T01:52:54.275Z,52.60
2018-04-30T01:53:55.343Z,52.30
2018-04-30T01:54:56.419Z,52.50
2018-04-30T01:55:57.479Z,52.60
2018-04-30T01:56:58.554Z,52.30
2018-04-30T01:57:59.610Z,52.40
2018-04-30T01:59:01.443Z,52.00
2018-04-30T02:00:02.519Z,51.80
2018-04-30T02:01:03.597Z,51.90
2018-04-30T02:02:04.690Z,51.50
2018-04-30T02:03:05.783Z,51.50
2018-04-30T02:04:06.850Z,51.20
2018-04-30T02:05:07.969Z,51.20
2018-04-30T02:06:09.051Z,51.10
2018-04-30T02:07:10.119Z,51.20
2018-04-30T02:08:11.943Z,51.00
2018-04-30T02:09:13.016Z,51.20
2018-04-30T02:10:14.094Z,51.00
2018-04-30T02:11:15.164Z,51.00
2018-04-30T02:12:16.256Z,51.00
2018-04-30T02:13:17.332Z,50.90
2018-04-30T02:14:19.145Z,50.90
2018-04-30T02:15:20.208Z,50.90
2018-04-30T02:16:21.306Z,50.80
2018-04-30T02:17:22.368Z,50.80
2018-04-30T02:18:23.434Z,50.80
2018-04-30T02:19:24.515Z,50.70
2018-04-30T02:20:25.563Z,50.70
2018-04-30T02:21:27.372Z,50.70
2018-04-30T02:22:28.451Z,50.70
2018-04-30T02:23:30.266Z,50.70
2018-04-30T02:24:31.363Z,50.70
2018-04-30T02:25:32.431Z,50.70
2018-04-30T02:26:33.491Z,51.10
2018-04-30T02:27:35.290Z,50.60
2018-04-30T02:28:36.356Z,50.60
2018-04-30T02:29:37.464Z,50.50
2018-04-30T02:30:38.527Z,50.60
2018-04-30T02:31:40.339Z,50.50
2018-04-30T02:32:41.401Z,50.50
2018-04-30T02:33:42.549Z,50.50
2018-04-30T02:34:43.566Z,50.40
2018-04-30T02:35:44.624Z,50.40
2018-04-30T02:36:46.412Z,49.80
2018-04-30T02:37:47.467Z,49.80
2018-04-30T02:38:48.540Z,50.30
2018-04-30T02:39:49.611Z,50.30
2018-04-30T02:40:50.663Z,50.30
2018-04-30T02:41:51.716Z,50.30
2018-04-30T02:42:52.785Z,51.00
2018-04-30T02:43:53.855Z,51.10
2018-04-30T02:44:54.907Z,50.50
2018-04-30T02:45:56.711Z,50.40
2018-04-30T02:46:57.763Z,50.40
2018-04-30T02:47:58.822Z,51.10
2018-04-30T02:49:00.638Z,51.30
2018-04-30T02:50:01.719Z,51.30
2018-04-30T02:51:03.527Z,51.20
2018-04-30T02:52:04.587Z,51.10
2018-04-30T02:53:05.652Z,51.10
2018-04-30T02:54:06.747Z,51.60
2018-04-30T02:55:07.838Z,51.10
2018-04-30T02:56:08.892Z,51.30
2018-04-30T02:57:09.972Z,51.90
2018-04-30T02:58:11.780Z,51.70
2018-04-30T02:59:12.857Z,51.70
2018-04-30T03:00:13.908Z,51.70
2018-04-30T03:01:15.719Z,51.80
2018-04-30T03:02:17.569Z,52.10
2018-04-30T03:03:18.644Z,52.10
2018-04-30T03:04:19.687Z,52.10
2018-04-30T03:05:20.761Z,51.70
2018-04-30T03:06:21.847Z,52.20
2018-04-30T03:07:22.902Z,51.70
2018-04-30T03:08:23.967Z,51.80
2018-04-30T03:09:25.772Z,51.10
2018-04-30T03:10:26.892Z,51.10
2018-04-30T03:11:27.967Z,51.90
2018-04-30T03:12:29.771Z,52.20
2018-04-30T03:13:30.850Z,52.10
2018-04-30T03:14:32.658Z,52.10
2018-04-30T03:15:33.723Z,51.50
2018-04-30T03:16:35.539Z,52.00
2018-04-30T03:17:36.651Z,51.90
2018-04-30T03:18:37.770Z,52.10
2018-04-30T03:19:38.830Z,52.20
2018-04-30T03:20:39.908Z,52.20
2018-04-30T03:21:41.711Z,52.00
2018-04-30T03:22:42.795Z,51.90
2018-04-30T03:23:43.890Z,51.60
2018-04-30T03:24:44.958Z,52.00
2018-04-30T03:25:46.016Z,52.30
2018-04-30T03:26:47.104Z,52.30
2018-04-30T03:27:48.175Z,52.50
2018-04-30T03:28:49.246Z,52.50
2018-04-30T03:29:50.327Z,53.10
2018-04-30T03:30:52.120Z,53.10
2018-04-30T03:31:53.181Z,53.10
2018-04-30T03:32:54.239Z,53.70
2018-04-30T03:33:55.307Z,53.80
2018-04-30T03:34:56.368Z,54.10
2018-04-30T03:35:57.420Z,54.10
2018-04-30T03:36:58.463Z,53.80
2018-04-30T03:37:59.526Z,53.80
2018-04-30T03:39:00.587Z,54.00
2018-04-30T03:40:01.631Z,53.50
2018-04-30T03:41:02.718Z,53.20
2018-04-30T03:42:03.795Z,53.20
2018-04-30T03:43:04.863Z,53.80
2018-04-30T03:44:05.972Z,54.00
2018-04-30T03:45:07.067Z,54.60
2018-04-30T03:46:08.129Z,54.80
2018-04-30T03:47:09.200Z,55.20
2018-04-30T03:48:10.246Z,54.90
2018-04-30T03:49:12.082Z,56.40
2018-04-30T03:50:13.147Z,56.40
2018-04-30T03:51:14.224Z,56.80
2018-04-30T03:52:15.275Z,56.70
2018-04-30T03:53:16.389Z,56.40
2018-04-30T03:54:17.472Z,57.00
2018-04-30T03:55:18.574Z,57.80
2018-04-30T03:56:19.647Z,58.40
2018-04-30T03:57:20.695Z,58.20
2018-04-30T03:58:21.760Z,58.70
2018-04-30T03:59:23.568Z,58.20
2018-04-30T04:00:37.003Z,58.20
2018-04-30T04:01:50.379Z,57.60
2018-04-30T04:03:03.840Z,58.90
2018-04-30T04:04:17.226Z,58.30
2018-04-30T04:05:30.625Z,59.10
2018-04-30T04:06:44.059Z,59.50
2018-04-30T04:07:45.106Z,59.30
2018-04-30T04:08:46.159Z,59.30
2018-04-30T04:09:47.240Z,59.70
2018-04-30T04:10:48.298Z,59.30
2018-04-30T04:11:49.339Z,60.50
2018-04-30T04:12:50.542Z,60.00
2018-04-30T04:13:51.452Z,59.90
2018-04-30T04:14:53.249Z,60.40
2018-04-30T04:15:54.342Z,60.40
2018-04-30T04:16:55.387Z,61.00
2018-04-30T04:17:56.456Z,61.20
2018-04-30T04:18:57.570Z,59.80
2018-04-30T04:19:58.642Z,59.70
2018-04-30T04:21:00.456Z,60.30
2018-04-30T04:22:01.515Z,60.20
2018-04-30T04:23:02.582Z,60.40
2018-04-30T04:24:03.648Z,61.10
2018-04-30T04:25:04.754Z,61.40
2018-04-30T04:26:05.814Z,60.80
2018-04-30T04:27:06.870Z,61.60
2018-04-30T04:28:07.931Z,60.70
2018-04-30T04:29:08.984Z,60.90
2018-04-30T04:30:10.049Z,60.40
2018-04-30T04:31:11.120Z,61.50
2018-04-30T04:32:12.163Z,61.50
2018-04-30T04:33:13.231Z,61.00
2018-04-30T04:34:14.284Z,60.40
2018-04-30T04:35:15.397Z,59.80
2018-04-30T04:36:16.481Z,58.90
2018-04-30T04:37:17.530Z,59.80
2018-04-30T04:38:18.583Z,60.00
2018-04-30T04:39:19.647Z,59.80
2018-04-30T04:40:20.730Z,60.90
2018-04-30T04:41:21.779Z,60.40
2018-04-30T04:42:23.587Z,61.10
2018-04-30T04:43:24.653Z,61.20
2018-04-30T04:44:25.722Z,61.50
2018-04-30T04:45:26.844Z,60.20
2018-04-30T04:46:27.828Z,59.50
2018-04-30T04:47:29.622Z,60.30
2018-04-30T04:48:30.703Z,60.40
2018-04-30T04:49:32.516Z,60.10
2018-04-30T04:50:33.584Z,60.10
2018-04-30T04:51:35.399Z,60.10
2018-04-30T04:52:36.467Z,60.10
2018-04-30T04:53:38.274Z,60.60
2018-04-30T04:54:39.343Z,60.40
2018-04-30T04:55:41.126Z,60.20
2018-04-30T04:56:42.194Z,59.90
2018-04-30T04:57:43.256Z,59.90
2018-04-30T04:58:44.311Z,60.40
2018-04-30T04:59:45.358Z,59.10
2018-04-30T05:00:46.410Z,59.70
2018-04-30T05:01:47.483Z,59.30
2018-04-30T05:02:49.282Z,59.10
2018-04-30T05:03:50.347Z,59.00
2018-04-30T05:04:51.423Z,59.30
2018-04-30T05:05:52.474Z,58.90
2018-04-30T05:06:53.535Z,58.70
2018-04-30T05:07:54.594Z,58.80
2018-04-30T05:08:55.667Z,58.90
2018-04-30T05:09:56.767Z,59.70
2018-04-30T05:10:57.854Z,58.90
2018-04-30T05:11:58.912Z,59.30
2018-04-30T05:12:59.967Z,58.30
2018-04-30T05:14:01.787Z,58.80
2018-04-30T05:15:02.906Z,58.80
2018-04-30T05:16:03.975Z,58.70
2018-04-30T05:17:05.771Z,59.30
2018-04-30T05:18:06.827Z,59.30
2018-04-30T05:19:07.883Z,59.10
2018-04-30T05:20:08.946Z,59.00
2018-04-30T05:21:10.028Z,59.70
2018-04-30T05:22:11.827Z,60.90
2018-04-30T05:23:12.878Z,60.90
2018-04-30T05:24:14.669Z,60.50
2018-04-30T05:25:16.475Z,61.50
2018-04-30T05:26:17.527Z,61.50
2018-04-30T05:27:18.583Z,61.60
2018-04-30T05:28:19.614Z,61.50
2018-04-30T05:29:20.679Z,61.60
2018-04-30T05:30:21.755Z,61.60
2018-04-30T05:31:22.825Z,61.60
2018-04-30T05:32:23.891Z,61.80
2018-04-30T05:33:24.955Z,63.00
2018-04-30T05:34:26.022Z,61.50
2018-04-30T05:35:27.826Z,61.90
2018-04-30T05:36:28.903Z,61.90
2018-04-30T05:37:30.711Z,62.10
2018-04-30T05:38:31.768Z,61.70
2018-04-30T05:39:33.594Z,62.20
2018-04-30T05:40:34.643Z,62.20
2018-04-30T05:41:36.443Z,61.60
2018-04-30T05:42:37.503Z,61.60
2018-04-30T05:43:38.574Z,61.60
2018-04-30T05:44:39.634Z,61.60
2018-04-30T05:45:40.718Z,61.60
2018-04-30T05:46:41.790Z,61.70
2018-04-30T05:47:42.846Z,62.40
2018-04-30T05:48:43.925Z,62.10
2018-04-30T05:49:45.753Z,62.10
2018-04-30T05:50:46.810Z,62.20
2018-04-30T05:51:48.618Z,62.10
2018-04-30T05:52:49.680Z,62.90
2018-04-30T05:53:50.738Z,62.10
2018-04-30T05:54:51.787Z,62.10
2018-04-30T05:55:52.871Z,62.50
2018-04-30T05:56:53.930Z,62.10
2018-04-30T05:57:54.987Z,62.10
2018-04-30T05:58:56.088Z,61.70
2018-04-30T05:59:57.932Z,61.90
2018-04-30T06:00:59.016Z,61.90
2018-04-30T06:02:00.091Z,62.20
2018-04-30T06:03:01.157Z,61.70
2018-04-30T06:04:02.276Z,61.90
2018-04-30T06:05:03.363Z,61.70
2018-04-30T06:06:04.444Z,61.80
2018-04-30T06:07:05.538Z,61.40
2018-04-30T06:08:06.607Z,60.60
2018-04-30T06:09:07.722Z,61.20
2018-04-30T06:10:08.791Z,61.40
2018-04-30T06:11:09.904Z,61.80
2018-04-30T06:12:11.002Z,61.30
2018-04-30T06:13:12.044Z,60.70
2018-04-30T06:14:13.884Z,60.40
2018-04-30T06:15:14.973Z,60.40
2018-04-30T06:16:16.023Z,60.80
2018-04-30T06:17:17.090Z,60.40
2018-04-30T06:18:18.122Z,60.40
2018-04-30T06:19:19.935Z,60.90
2018-04-30T06:20:20.983Z,60.80
2018-04-30T06:21:22.075Z,60.00
2018-04-30T06:22:23.152Z,59.90
2018-04-30T06:23:24.218Z,60.00
2018-04-30T06:24:25.292Z,59.70
2018-04-30T06:25:26.335Z,59.50
2018-04-30T06:26:27.398Z,59.50
2018-04-30T06:27:28.431Z,59.50
2018-04-30T06:28:29.471Z,59.60
2018-04-30T06:29:30.514Z,59.20
2018-04-30T06:30:31.574Z,59.50
2018-04-30T06:31:32.627Z,59.20
2018-04-30T06:32:33.686Z,59.30
2018-04-30T06:33:35.557Z,58.70
2018-04-30T06:34:36.661Z,58.80
2018-04-30T06:35:38.517Z,58.90
2018-04-30T06:36:39.574Z,59.00
2018-04-30T06:37:40.608Z,58.70
2018-04-30T06:38:41.667Z,58.10
2018-04-30T06:39:42.733Z,58.50
2018-04-30T06:40:43.787Z,58.00
2018-04-30T06:41:44.859Z,58.30
2018-04-30T06:42:45.890Z,55.90
2018-04-30T06:43:46.954Z,55.20
2018-04-30T06:44:47.987Z,55.70
2018-04-30T06:45:49.111Z,54.80
2018-04-30T06:46:50.228Z,54.10
2018-04-30T06:47:51.287Z,53.30
2018-04-30T06:48:52.373Z,53.40
2018-04-30T06:49:53.426Z,53.10
2018-04-30T06:50:54.578Z,53.00
2018-04-30T06:51:55.644Z,53.50
2018-04-30T06:52:56.723Z,53.70
2018-04-30T06:53:57.784Z,53.30
2018-04-30T06:54:58.822Z,53.10
2018-04-30T06:55:59.923Z,53.60
2018-04-30T06:57:01.036Z,53.40
2018-04-30T06:58:02.153Z,53.80
2018-04-30T06:59:03.188Z,53.20
2018-04-30T07:00:04.988Z,52.40
2018-04-30T07:01:06.035Z,52.30
2018-04-30T07:02:07.108Z,52.60
2018-04-30T07:03:08.885Z,53.20
2018-04-30T07:04:10.671Z,52.80
2018-04-30T07:05:11.708Z,52.90
2018-04-30T07:06:12.750Z,52.90
2018-04-30T07:07:13.771Z,53.80
2018-04-30T07:08:14.811Z,51.80
2018-04-30T07:09:15.888Z,52.00
2018-04-30T07:10:16.890Z,52.60
2018-04-30T07:11:17.950Z,52.60
2018-04-30T07:12:19.718Z,53.00
2018-04-30T07:13:20.771Z,53.00
2018-04-30T07:14:21.793Z,52.70
2018-04-30T07:15:22.819Z,52.30
2018-04-30T07:16:23.856Z,52.20
2018-04-30T07:17:24.902Z,51.00
2018-04-30T07:18:25.915Z,51.00
2018-04-30T07:19:26.947Z,51.50
2018-04-30T07:20:27.971Z,51.50
2018-04-30T07:21:29.778Z,50.70
2018-04-30T07:22:30.815Z,50.70
2018-04-30T07:23:31.834Z,51.00
2018-04-30T07:24:33.658Z,51.60
2018-04-30T07:25:34.727Z,51.70
2018-04-30T07:26:35.791Z,51.20
2018-04-30T07:27:36.973Z,51.20
2018-04-30T07:28:37.909Z,50.70
2018-04-30T07:29:39.670Z,50.90
2018-04-30T07:30:40.699Z,50.90
2018-04-30T07:31:41.741Z,51.00
2018-04-30T07:32:42.763Z,51.00
2018-04-30T07:33:43.794Z,51.50
2018-04-30T07:34:44.828Z,50.80
2018-04-30T07:35:45.903Z,50.20
2018-04-30T07:36:46.987Z,50.50
2018-04-30T07:37:48.048Z,50.40
2018-04-30T07:38:49.062Z,49.90
2018-04-30T07:39:50.082Z,49.80
2018-04-30T07:40:51.111Z,49.90
2018-04-30T07:41:52.155Z,49.80
2018-04-30T07:42:53.175Z,50.00
2018-04-30T07:43:54.206Z,50.00
2018-04-30T07:44:55.281Z,49.60
2018-04-30T07:45:56.344Z,49.40
2018-04-30T07:46:57.434Z,48.10
2018-04-30T07:47:58.499Z,48.40
2018-04-30T07:49:00.297Z,48.60
2018-04-30T07:50:01.380Z,48.50
2018-04-30T07:51:02.407Z,48.40
2018-04-30T07:52:03.455Z,48.10
2018-04-30T07:53:05.237Z,48.10
2018-04-30T07:54:06.268Z,48.10
2018-04-30T07:55:07.291Z,48.20
2018-04-30T07:56:08.318Z,47.60
2018-04-30T07:57:09.423Z,46.90
2018-04-30T07:58:10.481Z,47.10
2018-04-30T07:59:11.547Z,46.80
2018-04-30T08:00:12.606Z,46.80
2018-04-30T08:01:13.680Z,47.30
2018-04-30T08:02:14.770Z,47.00
2018-04-30T08:03:15.807Z,46.90
2018-04-30T08:04:16.868Z,46.70
2018-04-30T08:05:17.908Z,47.00
2018-04-30T08:06:18.947Z,46.90
2018-04-30T08:07:20.027Z,46.50
2018-04-30T08:08:21.071Z,46.50
2018-04-30T08:09:22.095Z,46.50
2018-04-30T08:10:23.151Z,46.30
2018-04-30T08:11:24.919Z,47.20
2018-04-30T08:12:25.998Z,47.20
2018-04-30T08:13:27.026Z,46.70
2018-04-30T08:14:28.049Z,46.70
2018-04-30T08:15:29.078Z,46.70
2018-04-30T08:16:30.168Z,46.30
2018-04-30T08:17:31.273Z,46.40
2018-04-30T08:18:32.318Z,45.90
2018-04-30T08:19:33.356Z,45.90
2018-04-30T08:20:34.386Z,46.00
2018-04-30T08:21:35.435Z,46.00
2018-04-30T08:22:36.471Z,46.00
2018-04-30T08:23:37.507Z,46.00
2018-04-30T08:24:38.548Z,46.00
2018-04-30T08:25:39.622Z,46.00
2018-04-30T08:26:40.667Z,45.60
2018-04-30T08:27:41.747Z,45.90
2018-04-30T08:28:42.806Z,46.00
2018-04-30T08:29:43.867Z,45.90
2018-04-30T08:30:44.895Z,45.30
2018-04-30T08:31:45.955Z,45.10
2018-04-30T08:32:47.049Z,45.00
2018-04-30T08:33:48.110Z,45.20
2018-04-30T08:34:49.138Z,44.70
2018-04-30T08:35:50.169Z,44.70
2018-04-30T08:37:53.731Z,44.40
2018-04-30T08:38:55.528Z,44.40
2018-04-30T08:39:56.614Z,44.50
2018-04-30T08:40:57.676Z,44.10
2018-04-30T08:41:58.707Z,44.00
2018-04-30T08:42:59.787Z,43.50
2018-04-30T08:44:01.588Z,43.60
2018-04-30T08:45:02.650Z,43.70
2018-04-30T08:46:03.716Z,44.20
2018-04-30T08:47:04.781Z,44.10
2018-04-30T08:48:05.799Z,43.50
2018-04-30T08:49:06.835Z,43.60
2018-04-30T08:50:08.672Z,43.50
2018-04-30T08:51:09.712Z,43.40
2018-04-30T08:52:11.513Z,42.30
2018-04-30T08:53:12.580Z,42.20
2018-04-30T08:54:13.642Z,42.20
2018-04-30T08:55:14.671Z,42.50
2018-04-30T08:56:15.692Z,42.30
2018-04-30T08:57:17.475Z,41.60
2018-04-30T08:58:18.518Z,41.50
2018-04-30T08:59:20.337Z,40.70
2018-04-30T09:00:21.465Z,40.70
2018-04-30T09:01:22.541Z,40.40
2018-04-30T09:02:23.606Z,41.10
2018-04-30T09:03:24.672Z,40.80
2018-04-30T09:04:25.759Z,40.80
2018-04-30T09:05:26.807Z,41.00
2018-04-30T09:06:28.587Z,39.90
2018-04-30T09:07:29.641Z,39.90
2018-04-30T09:08:31.464Z,39.30
2018-04-30T09:09:32.632Z,39.20
2018-04-30T09:10:33.660Z,39.10
2018-04-30T09:11:35.471Z,39.30
2018-04-30T09:12:36.513Z,39.30
2018-04-30T09:13:38.294Z,40.00
2018-04-30T09:14:39.334Z,40.00
2018-04-30T09:15:40.363Z,38.80
2018-04-30T09:16:41.388Z,39.20
2018-04-30T09:17:42.428Z,39.90
2018-04-30T09:18:44.219Z,40.30
2018-04-30T09:19:45.271Z,40.30
2018-04-30T09:20:46.347Z,40.10
2018-04-30T09:21:47.368Z,39.00
2018-04-30T09:22:48.416Z,38.80
2018-04-30T09:23:50.228Z,39.00
2018-04-30T09:24:51.292Z,39.00
2018-04-30T09:25:52.349Z,37.80
2018-04-30T09:26:53.388Z,38.00
2018-04-30T09:27:54.439Z,38.80
2018-04-30T09:28:55.518Z,39.00
2018-04-30T09:29:56.592Z,38.80
2018-04-30T09:30:57.664Z,38.20
2018-04-30T09:31:58.711Z,38.10
2018-04-30T09:32:59.767Z,38.50
2018-04-30T09:34:00.826Z,38.60
2018-04-30T09:35:01.973Z,38.50
2018-04-30T09:36:03.122Z,38.10
2018-04-30T09:37:04.153Z,38.10
2018-04-30T09:38:05.208Z,38.00
2018-04-30T09:39:06.307Z,38.10
2018-04-30T09:40:07.416Z,38.10
2018-04-30T09:41:08.500Z,38.10
2018-04-30T09:42:10.351Z,38.10
2018-04-30T09:43:11.394Z,38.10
2018-04-30T09:44:12.423Z,38.10
2018-04-30T09:45:13.451Z,38.10
2018-04-30T09:46:14.486Z,37.50
2018-04-30T09:47:15.531Z,37.50
2018-04-30T09:48:16.590Z,37.80
2018-04-30T09:49:17.655Z,37.90
2018-04-30T09:50:18.906Z,38.20
2018-04-30T09:51:19.995Z,38.00
2018-04-30T09:52:21.022Z,38.00
2018-04-30T09:53:22.103Z,38.20
2018-04-30T09:54:23.175Z,38.20
2018-04-30T09:55:24.224Z,36.80
2018-04-30T09:56:25.340Z,36.70
2018-04-30T09:57:26.378Z,36.80
2018-04-30T09:58:27.418Z,37.50
2018-04-30T09:59:28.474Z,36.80
2018-04-30T10:00:29.535Z,37.10
2018-04-30T10:01:30.591Z,37.40
2018-04-30T10:02:31.622Z,37.20
2018-04-30T10:03:32.660Z,37.00
2018-04-30T10:04:33.734Z,36.30
2018-04-30T10:05:34.786Z,36.80
2018-04-30T10:06:35.846Z,36.70
2018-04-30T10:07:36.878Z,37.10
2018-04-30T10:08:38.659Z,37.60
2018-04-30T10:09:39.721Z,37.70
2018-04-30T10:10:40.803Z,38.30
2018-04-30T10:11:41.846Z,37.70
2018-04-30T10:12:42.870Z,37.20
2018-04-30T10:13:43.898Z,37.60
2018-04-30T10:14:44.954Z,37.80
2018-04-30T10:15:45.992Z,36.10
2018-04-30T10:16:48.144Z,36.10
2018-04-30T10:17:49.245Z,35.90
2018-04-30T10:18:50.556Z,35.50
2018-04-30T10:19:52.330Z,35.60
2018-04-30T10:20:54.290Z,35.60
2018-04-30T10:21:55.795Z,35.40
2018-04-30T10:22:56.904Z,35.50
2018-04-30T10:23:57.983Z,35.60
2018-04-30T10:24:59.003Z,34.50
2018-04-30T10:26:00.080Z,34.50
2018-04-30T10:27:01.127Z,33.80
2018-04-30T10:28:02.481Z,34.40
2018-04-30T10:29:03.646Z,34.80
2018-04-30T10:30:04.595Z,34.40
2018-04-30T10:31:05.650Z,34.40
2018-04-30T10:32:06.707Z,34.40
2018-04-30T10:33:07.777Z,35.30
2018-04-30T10:34:08.849Z,34.60
2018-04-30T10:35:09.914Z,33.50
2018-04-30T10:36:11.747Z,33.60
2018-04-30T10:37:12.786Z,33.70
2018-04-30T10:38:13.838Z,33.80
2018-04-30T10:39:14.904Z,33.80
2018-04-30T10:40:16.349Z,32.60
2018-04-30T10:41:17.383Z,32.60
2018-04-30T10:42:18.439Z,32.30
2018-04-30T10:43:20.251Z,32.80
2018-04-30T10:44:21.304Z,32.80
2018-04-30T10:45:22.370Z,33.00
2018-04-30T10:46:23.425Z,32.30
2018-04-30T10:47:24.534Z,32.70
2018-04-30T10:48:25.575Z,33.00
2018-04-30T10:49:27.384Z,33.00
2018-04-30T10:50:28.427Z,32.90
2018-04-30T10:51:30.298Z,32.40
2018-04-30T10:52:31.295Z,32.40
2018-04-30T10:53:32.372Z,32.20
2018-04-30T10:54:33.440Z,32.10
2018-04-30T10:55:34.538Z,32.40
2018-04-30T10:56:35.523Z,33.10
2018-04-30T10:57:36.551Z,32.90
2018-04-30T10:58:37.584Z,33.30
2018-04-30T10:59:38.603Z,32.60
2018-04-30T11:00:39.655Z,32.80
2018-04-30T11:01:40.674Z,32.80
2018-04-30T11:02:41.746Z,32.20
2018-04-30T11:03:42.788Z,31.80
2018-04-30T11:04:43.826Z,32.20
2018-04-30T11:05:45.612Z,32.70
2018-04-30T11:06:46.646Z,32.80
2018-04-30T11:07:47.685Z,33.00
2018-04-30T11:08:49.470Z,33.20
2018-04-30T11:09:50.506Z,33.20
2018-04-30T11:10:51.543Z,32.70
2018-04-30T11:11:53.319Z,32.20
2018-04-30T11:12:54.403Z,32.20
2018-04-30T11:13:56.243Z,31.90
2018-04-30T11:14:57.317Z,31.80
2018-04-30T11:15:58.382Z,32.70
2018-04-30T11:16:59.429Z,32.00
2018-04-30T11:18:00.466Z,32.00
2018-04-30T11:19:01.507Z,31.70
2018-04-30T11:20:02.539Z,31.90
2018-04-30T11:21:03.611Z,31.50
2018-04-30T11:22:04.635Z,31.60
2018-04-30T11:23:05.672Z,31.80
2018-04-30T11:24:06.725Z,32.10
2018-04-30T11:25:07.780Z,31.90
2018-04-30T11:26:08.819Z,31.90
2018-04-30T11:27:09.839Z,30.80
2018-04-30T11:28:10.890Z,30.80
2018-04-30T11:29:11.943Z,30.80
2018-04-30T11:30:13.004Z,30.70
2018-04-30T11:31:14.048Z,30.70
2018-04-30T11:32:15.837Z,30.80
2018-04-30T11:33:16.884Z,30.80
2018-04-30T11:34:18.662Z,30.80
2018-04-30T11:35:19.735Z,30.70
2018-04-30T11:36:20.775Z,30.80
2018-04-30T11:37:21.823Z,30.80
2018-04-30T11:38:22.893Z,30.50
2018-04-30T11:39:23.933Z,30.90
2018-04-30T11:40:24.956Z,30.00
2018-04-30T11:41:26.011Z,30.20
2018-04-30T11:42:27.069Z,30.00
2018-04-30T11:43:28.103Z,30.30
2018-04-30T11:44:29.146Z,30.20
2018-04-30T11:45:30.950Z,29.70
2018-04-30T11:46:31.984Z,29.60
2018-04-30T11:47:33.033Z,29.40
2018-04-30T11:48:34.072Z,30.00
2018-04-30T11:49:35.131Z,30.00
2018-04-30T11:50:36.906Z,31.60
2018-04-30T11:51:37.968Z,30.90
2018-04-30T11:52:39.013Z,30.10
2018-04-30T11:53:40.055Z,30.00
2018-04-30T11:54:41.102Z,30.90
2018-04-30T11:55:42.181Z,30.80
2018-04-30T11:56:43.216Z,30.80
2018-04-30T11:57:44.283Z,30.90
2018-04-30T11:58:46.138Z,30.10
2018-04-30T11:59:47.099Z,30.10
2018-04-30T12:00:48.142Z,31.00
2018-04-30T12:01:49.184Z,30.00
2018-04-30T12:02:50.219Z,30.60
2018-04-30T12:03:51.264Z,29.60
2018-04-30T12:04:52.348Z,30.00
2018-04-30T12:05:53.338Z,29.30
2018-04-30T12:06:54.383Z,29.40
2018-04-30T12:07:56.161Z,29.10
2018-04-30T12:08:57.197Z,29.00
2018-04-30T12:09:58.233Z,29.60
2018-04-30T12:10:59.323Z,30.00
2018-04-30T12:12:00.327Z,29.80
2018-04-30T12:13:01.355Z,29.40
2018-04-30T12:14:02.403Z,29.30
2018-04-30T12:15:03.447Z,29.20
2018-04-30T12:16:04.483Z,28.60
2018-04-30T12:17:05.547Z,28.70
2018-04-30T12:18:06.790Z,27.70
2018-04-30T12:19:07.835Z,28.30
2018-04-30T12:20:08.945Z,28.20
2018-04-30T12:21:09.998Z,28.50
2018-04-30T12:22:11.098Z,28.80
2018-04-30T12:23:12.093Z,29.40
2018-04-30T12:24:13.132Z,28.90
2018-04-30T12:25:14.195Z,29.30
2018-04-30T12:26:15.269Z,29.20
2018-04-30T12:27:16.315Z,29.40
2018-04-30T12:28:17.371Z,29.40
2018-04-30T12:29:18.434Z,29.00
2018-04-30T12:30:19.519Z,28.80
2018-04-30T12:31:20.566Z,28.90
2018-04-30T12:32:22.343Z,28.50
2018-04-30T12:33:23.399Z,28.60
2018-04-30T12:34:24.410Z,28.60
2018-04-30T12:35:25.474Z,28.60
2018-04-30T12:36:26.520Z,28.70
2018-04-30T12:37:27.632Z,29.20
2018-04-30T12:38:28.575Z,28.60
2018-04-30T12:39:29.603Z,28.60
2018-04-30T12:40:30.703Z,29.10
2018-04-30T12:41:31.770Z,28.60
2018-04-30T12:42:32.811Z,28.60
2018-04-30T12:43:33.844Z,28.40
2018-04-30T12:44:34.925Z,27.70
2018-04-30T12:45:36.124Z,27.70
2018-04-30T12:46:37.156Z,27.60
2018-04-30T12:47:38.953Z,28.20
2018-04-30T12:48:40.000Z,28.20
2018-04-30T12:49:41.114Z,27.80
2018-04-30T12:50:42.109Z,28.00
2018-04-30T12:51:43.135Z,27.70
2018-04-30T12:52:44.895Z,27.60
2018-04-30T12:53:45.930Z,27.70
2018-04-30T12:54:46.987Z,27.70
2018-04-30T12:55:48.029Z,28.00
2018-04-30T12:56:49.066Z,27.80
2018-04-30T12:57:50.099Z,27.90
2018-04-30T12:58:51.159Z,27.90
2018-04-30T12:59:52.235Z,27.90
2018-04-30T13:00:53.278Z,27.20
2018-04-30T13:01:54.339Z,27.20
2018-04-30T13:02:55.386Z,27.40
2018-04-30T13:03:56.403Z,27.30
2018-04-30T13:04:57.446Z,27.60
2018-04-30T13:05:58.474Z,27.20
2018-04-30T13:06:59.512Z,27.40
2018-04-30T13:09:00.255Z,27.50
2018-04-30T13:10:01.262Z,27.60
2018-04-30T13:11:02.291Z,27.70